Time;durP1;ratioP1;P1;durP2;ratioP2;P2;SDS_P1;SDS_P2;PMS_P1;PMS_P2;Temp;Humidity;BMP_temperature;BMP_pressure;BME280_temperature;BME280_humidity;BME280_pressure;Samples;Min_cycle;Max_cycle;Signal;HPM_P1;HPM_P2
2021/07/16 00:01:38;;;;;;;25.37;12.47;;;;;;;;;;5050617;28;20380;-55
2021/07/16 00:04:04;;;;;;;21.00;12.10;;;;;;;;;;5050515;28;20430;-56
2021/07/16 00:06:30;;;;;;;25.60;11.57;;;;;;;;;;5050647;28;20433;-55
2021/07/16 00:08:56;;;;;;;22.37;12.80;;;;;;;;;;5050647;28;21110;-55
2021/07/16 00:11:22;;;;;;;24.17;12.33;;;;;;;;;;5051127;28;20437;-55
2021/07/16 00:13:49;;;;;;;21.60;12.50;;;;;;;;;;5050793;28;20416;-56
2021/07/16 00:16:15;;;;;;;31.60;11.87;;;;;;;;;;5050548;28;20384;-55
2021/07/16 00:18:42;;;;;;;23.10;11.20;;;;;;;;;;5050128;28;20459;-56
2021/07/16 00:21:08;;;;;;;14.50;11.50;;;;;;;;;;5050328;28;20781;-56
2021/07/16 00:23:34;;;;;;;19.90;11.87;;;;;;;;;;5050403;28;20866;-56
2021/07/16 00:26:00;;;;;;;23.03;11.80;;;;;;;;;;5050182;28;20398;-56
2021/07/16 00:28:26;;;;;;;27.73;11.93;;;;;;;;;;5050196;28;20421;-56
2021/07/16 00:30:52;;;;;;;23.60;11.87;;;;;;;;;;5050304;28;20408;-56
2021/07/16 00:33:18;;;;;;;32.60;10.97;;;;;;;;;;5050238;28;21008;-57
2021/07/16 00:35:44;;;;;;;20.47;11.17;;;;;;;;;;5050154;28;20401;-56
2021/07/16 00:38:10;;;;;;;23.33;10.80;;;;;;;;;;5050088;28;20456;-57
2021/07/16 00:40:36;;;;;;;19.10;10.50;;;;;;;;;;5049876;28;20383;-56
2021/07/16 00:43:01;;;;;;;18.00;11.00;;;;;;;;;;5050413;28;20404;-56
2021/07/16 00:45:27;;;;;;;24.87;10.80;;;;;;;;;;5050025;28;20400;-56
2021/07/16 00:47:54;;;;;;;18.63;10.93;;;;;;;;;;5049923;28;20414;-56
2021/07/16 00:50:22;;;;;;;17.80;10.80;;;;;;;;;;5050245;28;20750;-56
2021/07/16 00:52:48;;;;;;;14.87;10.90;;;;;;;;;;5053413;28;20409;-56
2021/07/16 00:55:16;;;;;;;20.57;11.10;;;;;;;;;;5053811;28;20436;-56
2021/07/16 00:57:42;;;;;;;22.00;11.40;;;;;;;;;;5053858;28;20531;-56
2021/07/16 01:00:09;;;;;;;26.43;11.67;;;;;;;;;;5053714;28;20408;-56
2021/07/16 01:02:36;;;;;;;14.97;11.37;;;;;;;;;;5053202;28;20901;-56
2021/07/16 01:05:02;;;;;;;28.20;12.40;;;;;;;;;;5053030;28;20404;-57
2021/07/16 01:07:28;;;;;;;16.57;10.40;;;;;;;;;;5053343;28;20435;-57
2021/07/16 01:09:54;;;;;;;17.57;10.93;;;;;;;;;;5053326;28;20476;-56
2021/07/16 01:12:21;;;;;;;15.00;10.50;;;;;;;;;;5053618;28;20379;-56
2021/07/16 01:14:48;;;;;;;14.70;10.30;;;;;;;;;;5053344;28;20368;-57
2021/07/16 01:17:14;;;;;;;23.83;10.47;;;;;;;;;;5053238;28;20849;-56
2021/07/16 01:19:52;;;;;;;18.83;10.10;;;;;;;;;;5053231;28;20412;-56
2021/07/16 01:22:18;;;;;;;20.63;10.97;;;;;;;;;;5053376;28;20944;-56
2021/07/16 01:24:45;;;;;;;32.87;11.10;;;;;;;;;;5053316;28;20409;-56
2021/07/16 01:27:11;;;;;;;18.20;10.50;;;;;;;;;;5053155;28;20372;-56
2021/07/16 01:29:37;;;;;;;18.30;10.37;;;;;;;;;;5053002;28;20381;-56
2021/07/16 01:32:04;;;;;;;15.07;10.60;;;;;;;;;;5053211;28;20389;-56
2021/07/16 01:34:30;;;;;;;19.40;10.87;;;;;;;;;;5053076;28;20379;-56
2021/07/16 01:36:56;;;;;;;24.47;10.60;;;;;;;;;;5053013;28;20398;-55
2021/07/16 01:39:22;;;;;;;20.27;10.73;;;;;;;;;;5052614;28;20467;-56
2021/07/16 01:41:48;;;;;;;17.87;9.53;;;;;;;;;;5053030;28;20414;-56
2021/07/16 01:44:14;;;;;;;27.00;10.53;;;;;;;;;;5052951;28;20405;-56
2021/07/16 01:46:40;;;;;;;19.90;10.47;;;;;;;;;;5052865;28;20886;-56
2021/07/16 01:49:06;;;;;;;19.63;10.40;;;;;;;;;;5052549;28;20454;-56
2021/07/16 01:51:32;;;;;;;22.23;10.90;;;;;;;;;;5052719;28;20409;-56
2021/07/16 01:53:58;;;;;;;15.87;10.90;;;;;;;;;;5052999;28;20442;-56
2021/07/16 01:56:24;;;;;;;16.80;11.23;;;;;;;;;;5052594;28;20409;-56
2021/07/16 01:58:51;;;;;;;14.90;10.67;;;;;;;;;;5052653;28;20462;-56
2021/07/16 02:01:17;;;;;;;24.27;10.60;;;;;;;;;;5052453;28;20382;-56
2021/07/16 02:03:44;;;;;;;18.60;10.60;;;;;;;;;;5051420;28;20401;-56
2021/07/16 02:06:10;;;;;;;16.40;10.13;;;;;;;;;;5052537;28;20881;-56
2021/07/16 02:08:36;;;;;;;18.47;10.00;;;;;;;;;;5052697;28;20403;-56
2021/07/16 02:11:02;;;;;;;15.90;9.87;;;;;;;;;;5052439;28;20419;-56
2021/07/16 02:13:28;;;;;;;15.83;10.00;;;;;;;;;;5052738;28;20504;-56
2021/07/16 02:15:54;;;;;;;14.37;9.57;;;;;;;;;;5052641;28;20415;-56
2021/07/16 02:18:21;;;;;;;17.53;9.90;;;;;;;;;;5052520;28;20422;-56
2021/07/16 02:20:47;;;;;;;17.20;9.50;;;;;;;;;;5052320;28;20499;-56
2021/07/16 02:23:14;;;;;;;15.80;10.60;;;;;;;;;;5052497;28;20398;-56
2021/07/16 02:25:41;;;;;;;13.67;9.80;;;;;;;;;;5052134;28;20458;-56
2021/07/16 02:28:08;;;;;;;17.30;9.73;;;;;;;;;;5052479;28;20423;-56
2021/07/16 02:30:34;;;;;;;9.53;5.10;;;;;;;;;;5051993;28;20383;-56
2021/07/16 02:33:01;;;;;;;20.53;10.50;;;;;;;;;;5052175;28;20405;-56
2021/07/16 02:35:27;;;;;;;16.33;9.27;;;;;;;;;;5051974;28;20382;-56
2021/07/16 02:37:53;;;;;;;17.83;9.23;;;;;;;;;;5051883;28;20426;-56
2021/07/16 02:40:19;;;;;;;25.87;9.80;;;;;;;;;;5051790;28;20454;-56
2021/07/16 02:42:46;;;;;;;11.67;9.90;;;;;;;;;;5052058;28;20403;-56
2021/07/16 02:45:16;;;;;;;11.13;9.60;;;;;;;;;;5051800;28;20380;-56
2021/07/16 02:47:43;;;;;;;24.53;11.10;;;;;;;;;;5051992;28;20443;-56
2021/07/16 02:50:10;;;;;;;19.40;10.10;;;;;;;;;;5051614;28;20545;-56
2021/07/16 02:52:36;;;;;;;18.87;9.43;;;;;;;;;;5051806;28;20383;-56
2021/07/16 02:55:03;;;;;;;12.90;9.23;;;;;;;;;;5051653;28;20376;-56
2021/07/16 02:57:29;;;;;;;17.27;10.00;;;;;;;;;;5051411;28;20425;-56
2021/07/16 02:59:55;;;;;;;16.10;9.97;;;;;;;;;;5051325;28;20409;-56
2021/07/16 03:02:20;;;;;;;17.63;9.70;;;;;;;;;;5051335;28;20411;-56
2021/07/16 03:04:49;;;;;;;12.33;9.73;;;;;;;;;;5051454;28;20854;-56
2021/07/16 03:07:15;;;;;;;18.17;9.80;;;;;;;;;;5051238;28;20491;-56
2021/07/16 03:09:41;;;;;;;19.97;8.90;;;;;;;;;;5051263;28;20407;-56
2021/07/16 03:12:07;;;;;;;16.30;9.50;;;;;;;;;;5051369;28;20433;-56
2021/07/16 03:14:33;;;;;;;18.47;10.23;;;;;;;;;;5051339;28;20898;-56
2021/07/16 03:16:59;;;;;;;14.83;9.60;;;;;;;;;;5051100;28;20937;-56
2021/07/16 03:19:25;;;;;;;21.77;9.00;;;;;;;;;;5051129;28;20453;-56
2021/07/16 03:21:51;;;;;;;17.37;11.50;;;;;;;;;;5051125;28;20935;-56
2021/07/16 03:24:18;;;;;;;12.80;9.90;;;;;;;;;;5051134;28;20383;-56
2021/07/16 03:26:44;;;;;;;19.90;10.60;;;;;;;;;;5050913;28;20754;-56
2021/07/16 03:29:10;;;;;;;16.60;10.60;;;;;;;;;;5050645;28;20863;-55
2021/07/16 03:31:36;;;;;;;11.53;8.87;;;;;;;;;;5050923;28;20469;-56
2021/07/16 03:34:02;;;;;;;16.13;10.33;;;;;;;;;;5051160;28;20384;-56
2021/07/16 03:36:28;;;;;;;13.00;9.70;;;;;;;;;;5050770;28;20879;-56
2021/07/16 03:38:55;;;;;;;27.17;10.07;;;;;;;;;;5050839;28;20467;-56
2021/07/16 03:41:21;;;;;;;16.57;10.47;;;;;;;;;;5051078;28;20732;-56
2021/07/16 03:43:47;;;;;;;20.93;10.90;;;;;;;;;;5050676;28;20410;-56
2021/07/16 03:46:14;;;;;;;17.93;9.20;;;;;;;;;;5050661;28;20390;-56
2021/07/16 03:48:40;;;;;;;19.03;10.53;;;;;;;;;;5066297;22;20565;-50
2021/07/16 03:51:06;;;;;;;20.07;10.53;;;;;;;;;;5030051;28;20481;-50
2021/07/16 03:53:32;;;;;;;14.07;9.27;;;;;;;;;;5031163;28;20409;-50
2021/07/16 03:55:58;;;;;;;15.93;10.50;;;;;;;;;;5030904;28;20405;-50
2021/07/16 03:58:24;;;;;;;12.80;9.63;;;;;;;;;;5030762;28;20439;-50
2021/07/16 04:00:50;;;;;;;16.03;11.40;;;;;;;;;;5030589;28;20411;-50
2021/07/16 04:03:17;;;;;;;18.60;10.77;;;;;;;;;;5030864;28;20484;-49
2021/07/16 04:05:44;;;;;;;21.63;10.30;;;;;;;;;;5030743;28;20491;-48
2021/07/16 04:08:15;;;;;;;19.73;11.40;;;;;;;;;;5030659;28;20426;-49
2021/07/16 04:10:41;;;;;;;21.87;10.87;;;;;;;;;;5030759;28;20364;-49
2021/07/16 04:13:09;;;;;;;22.10;11.47;;;;;;;;;;5030473;28;20375;-49
2021/07/16 04:15:35;;;;;;;15.10;11.20;;;;;;;;;;5030637;28;20380;-50
2021/07/16 04:18:02;;;;;;;13.33;10.20;;;;;;;;;;5030339;28;20831;-47
2021/07/16 04:20:28;;;;;;;12.43;11.07;;;;;;;;;;5030473;28;20397;-48
2021/07/16 04:22:55;;;;;;;22.03;11.93;;;;;;;;;;5030487;28;20398;-50
2021/07/16 04:25:21;;;;;;;16.27;11.33;;;;;;;;;;5030475;28;20372;-50
2021/07/16 04:27:48;;;;;;;18.83;11.73;;;;;;;;;;5033890;28;20794;-49
2021/07/16 04:30:15;;;;;;;23.00;11.03;;;;;;;;;;5034375;28;20446;-49
2021/07/16 04:32:41;;;;;;;18.70;11.20;;;;;;;;;;5034495;28;20417;-48
2021/07/16 04:35:08;;;;;;;16.70;11.60;;;;;;;;;;5034504;28;20405;-50
2021/07/16 04:37:37;;;;;;;19.23;11.00;;;;;;;;;;5033970;28;20383;-48
2021/07/16 04:40:07;;;;;;;22.13;11.80;;;;;;;;;;5034210;28;20387;-50
2021/07/16 04:42:33;;;;;;;20.33;12.60;;;;;;;;;;5034263;28;20539;-49
2021/07/16 04:44:59;;;;;;;17.70;12.30;;;;;;;;;;5034266;28;20733;-49
2021/07/16 04:47:25;;;;;;;19.03;12.80;;;;;;;;;;5034073;28;20405;-50
2021/07/16 04:49:51;;;;;;;19.00;12.00;;;;;;;;;;5033909;28;20767;-48
2021/07/16 04:52:17;;;;;;;19.53;11.57;;;;;;;;;;5033984;28;20371;-49
2021/07/16 04:54:43;;;;;;;21.33;12.17;;;;;;;;;;5034331;28;20767;-48
2021/07/16 04:57:11;;;;;;;16.87;12.00;;;;;;;;;;5033756;28;20397;-48
2021/07/16 04:59:37;;;;;;;21.13;12.70;;;;;;;;;;5033645;28;20494;-47
2021/07/16 05:02:03;;;;;;;21.17;12.80;;;;;;;;;;5033791;28;20380;-49
2021/07/16 05:04:29;;;;;;;15.90;11.83;;;;;;;;;;5033869;28;20804;-48
2021/07/16 05:06:55;;;;;;;20.07;11.60;;;;;;;;;;5033544;28;20405;-47
2021/07/16 05:09:23;;;;;;;19.83;12.63;;;;;;;;;;5033546;28;20958;-47
2021/07/16 05:11:49;;;;;;;17.43;12.70;;;;;;;;;;5033838;28;20599;-49
2021/07/16 05:14:15;;;;;;;18.87;12.27;;;;;;;;;;5033703;28;20413;-48
2021/07/16 05:16:41;;;;;;;22.47;12.40;;;;;;;;;;5033524;28;20379;-49
2021/07/16 05:19:08;;;;;;;21.10;13.40;;;;;;;;;;5033285;28;20495;-48
2021/07/16 05:21:34;;;;;;;21.43;11.97;;;;;;;;;;5033501;28;20913;-50
2021/07/16 05:24:00;;;;;;;36.37;13.03;;;;;;;;;;5033491;28;20911;-48
2021/07/16 05:26:28;;;;;;;17.13;12.10;;;;;;;;;;5033459;28;20436;-50
2021/07/16 05:28:54;;;;;;;23.07;10.77;;;;;;;;;;5033350;28;20514;-47
2021/07/16 05:31:20;;;;;;;19.17;10.97;;;;;;;;;;5033297;28;20500;-48
2021/07/16 05:33:46;;;;;;;16.40;11.03;;;;;;;;;;5033181;28;20444;-48
2021/07/16 05:36:12;;;;;;;21.57;10.93;;;;;;;;;;5033237;28;20380;-49
2021/07/16 05:38:38;;;;;;;16.93;10.40;;;;;;;;;;5032938;28;20439;-50
2021/07/16 05:41:07;;;;;;;18.90;11.50;;;;;;;;;;5033200;28;20683;-49
2021/07/16 05:43:34;;;;;;;14.53;11.20;;;;;;;;;;5033437;28;20397;-50
2021/07/16 05:46:01;;;;;;;16.70;10.40;;;;;;;;;;5033112;28;20383;-49
2021/07/16 05:48:27;;;;;;;13.80;11.20;;;;;;;;;;5033103;28;20835;-48
2021/07/16 05:50:53;;;;;;;20.57;12.33;;;;;;;;;;5033045;28;20407;-49
2021/07/16 05:53:19;;;;;;;17.07;10.90;;;;;;;;;;5033169;28;20411;-48
2021/07/16 05:55:45;;;;;;;20.20;11.90;;;;;;;;;;5032882;28;20574;-48
2021/07/16 05:58:11;;;;;;;17.43;11.53;;;;;;;;;;5032800;28;20813;-49
2021/07/16 06:00:38;;;;;;;16.63;10.30;;;;;;;;;;5032750;28;20404;-48
2021/07/16 06:03:04;;;;;;;12.10;10.30;;;;;;;;;;5032707;28;20892;-49
2021/07/16 06:05:32;;;;;;;14.63;10.80;;;;;;;;;;5032066;28;20889;-47
2021/07/16 06:07:58;;;;;;;16.60;10.13;;;;;;;;;;5032013;28;20400;-50
2021/07/16 06:10:24;;;;;;;21.00;10.50;;;;;;;;;;5031762;28;20772;-49
2021/07/16 06:12:50;;;;;;;15.73;10.57;;;;;;;;;;5032049;28;20409;-50
2021/07/16 06:15:16;;;;;;;17.80;11.03;;;;;;;;;;5031989;28;20468;-50
2021/07/16 06:17:42;;;;;;;15.00;10.07;;;;;;;;;;5031310;28;20492;-48
2021/07/16 06:20:09;;;;;;;15.17;9.70;;;;;;;;;;5032102;28;20402;-48
2021/07/16 06:22:36;;;;;;;15.13;8.93;;;;;;;;;;5031634;28;20372;-50
2021/07/16 06:25:02;;;;;;;19.93;10.40;;;;;;;;;;5031734;28;20405;-47
2021/07/16 06:27:28;;;;;;;20.00;9.77;;;;;;;;;;5031354;28;20380;-47
2021/07/16 06:29:54;;;;;;;20.37;10.00;;;;;;;;;;5031723;28;20376;-48
2021/07/16 06:32:20;;;;;;;17.33;10.37;;;;;;;;;;5032065;28;20380;-48
2021/07/16 06:34:46;;;;;;;16.87;11.30;;;;;;;;;;5031643;28;20416;-47
2021/07/16 06:37:12;;;;;;;20.23;9.67;;;;;;;;;;5031598;28;20400;-47
2021/07/16 06:39:38;;;;;;;18.40;10.00;;;;;;;;;;5030895;28;20472;-48
2021/07/16 06:42:05;;;;;;;15.80;10.17;;;;;;;;;;5031467;28;20378;-49
2021/07/16 06:44:31;;;;;;;19.63;9.97;;;;;;;;;;5031136;28;20501;-49
2021/07/16 06:46:57;;;;;;;17.33;9.97;;;;;;;;;;5031257;28;20386;-50
2021/07/16 06:49:26;;;;;;;22.17;10.40;;;;;;;;;;5030127;28;20445;-49
2021/07/16 06:51:53;;;;;;;15.00;9.60;;;;;;;;;;5031332;28;20377;-49
2021/07/16 06:54:19;;;;;;;21.47;10.20;;;;;;;;;;5031112;28;20391;-49
2021/07/16 06:56:45;;;;;;;19.43;10.07;;;;;;;;;;5030833;28;20409;-48
2021/07/16 06:59:12;;;;;;;17.03;11.07;;;;;;;;;;5030733;28;20477;-47
2021/07/16 07:01:38;;;;;;;19.07;11.03;;;;;;;;;;5031018;28;20373;-50
2021/07/16 07:04:04;;;;;;;21.93;11.03;;;;;;;;;;5031242;28;20401;-49
2021/07/16 07:06:30;;;;;;;22.50;10.00;;;;;;;;;;5031044;28;20785;-49
2021/07/16 07:08:56;;;;;;;18.23;9.77;;;;;;;;;;5030894;28;20462;-48
2021/07/16 07:11:22;;;;;;;18.30;11.20;;;;;;;;;;5030601;28;20414;-49
2021/07/16 07:13:48;;;;;;;21.50;11.40;;;;;;;;;;5031271;28;20379;-50
2021/07/16 07:16:16;;;;;;;23.47;11.47;;;;;;;;;;5031347;28;20414;-49
2021/07/16 07:18:42;;;;;;;16.23;12.23;;;;;;;;;;5013621;28;20889;-49
2021/07/16 07:21:08;;;;;;;20.77;12.07;;;;;;;;;;5031242;28;20379;-49
2021/07/16 07:23:34;;;;;;;24.50;11.13;;;;;;;;;;5031314;28;20398;-49
2021/07/16 07:26:00;;;;;;;20.60;11.10;;;;;;;;;;5031111;28;20485;-49
2021/07/16 07:28:26;;;;;;;19.30;11.90;;;;;;;;;;5031080;28;20419;-50
2021/07/16 07:30:52;;;;;;;19.37;10.73;;;;;;;;;;5031040;28;20436;-48
2021/07/16 07:33:18;;;;;;;18.40;10.70;;;;;;;;;;5031119;28;20406;-49
2021/07/16 07:35:44;;;;;;;19.33;10.70;;;;;;;;;;5031094;28;20500;-50
2021/07/16 07:38:10;;;;;;;23.90;11.53;;;;;;;;;;5030874;28;20448;-48
2021/07/16 07:40:36;;;;;;;14.93;11.60;;;;;;;;;;5030889;28;20382;-47
2021/07/16 07:43:03;;;;;;;20.60;11.33;;;;;;;;;;5031067;28;20407;-47
2021/07/16 07:45:29;;;;;;;16.83;11.30;;;;;;;;;;5031145;28;20398;-49
2021/07/16 07:47:55;;;;;;;14.97;10.53;;;;;;;;;;5030869;28;20427;-48
2021/07/16 07:50:22;;;;;;;17.90;11.77;;;;;;;;;;5030730;28;20386;-48
2021/07/16 07:52:49;;;;;;;26.27;11.13;;;;;;;;;;5030994;28;20394;-50
2021/07/16 07:55:16;;;;;;;15.53;9.40;;;;;;;;;;5030917;28;20773;-49
2021/07/16 07:57:42;;;;;;;14.17;9.80;;;;;;;;;;5030605;28;20776;-47
2021/07/16 08:00:09;;;;;;;12.67;9.40;;;;;;;;;;5030630;28;20433;-47
2021/07/16 08:02:35;;;;;;;19.57;9.30;;;;;;;;;;5030893;28;20395;-49
2021/07/16 08:05:01;;;;;;;22.27;9.60;;;;;;;;;;5030954;28;20377;-50
2021/07/16 08:07:27;;;;;;;23.13;11.20;;;;;;;;;;5030711;28;20489;-49
2021/07/16 08:09:53;;;;;;;18.73;9.27;;;;;;;;;;5030498;28;20430;-49
2021/07/16 08:12:19;;;;;;;21.83;8.97;;;;;;;;;;5030691;28;20839;-48
2021/07/16 08:14:45;;;;;;;18.13;11.43;;;;;;;;;;5030569;28;20424;-49
2021/07/16 08:17:11;;;;;;;13.20;9.90;;;;;;;;;;5030553;28;20418;-48
2021/07/16 08:19:37;;;;;;;20.03;9.97;;;;;;;;;;5030266;28;21036;-50
2021/07/16 08:22:03;;;;;;;20.47;9.67;;;;;;;;;;5030639;28;20373;-49
2021/07/16 08:24:29;;;;;;;18.40;9.27;;;;;;;;;;5030508;28;20402;-49
2021/07/16 08:26:55;;;;;;;18.93;9.33;;;;;;;;;;5030377;28;20377;-49
2021/07/16 08:29:21;;;;;;;13.70;9.33;;;;;;;;;;5030217;28;20473;-47
2021/07/16 08:31:47;;;;;;;15.53;9.13;;;;;;;;;;5030513;28;20933;-48
2021/07/16 08:34:17;;;;;;;21.53;10.73;;;;;;;;;;5030442;28;20394;-48
2021/07/16 08:36:44;;;;;;;16.53;10.00;;;;;;;;;;5030406;28;20762;-50
2021/07/16 08:39:10;;;;;;;20.33;9.67;;;;;;;;;;5030035;28;20454;-49
2021/07/16 08:41:36;;;;;;;26.47;11.27;;;;;;;;;;5030428;28;20779;-50
2021/07/16 08:44:03;;;;;;;15.30;10.20;;;;;;;;;;5030482;28;20416;-49
2021/07/16 08:46:29;;;;;;;15.53;9.57;;;;;;;;;;5030434;28;20979;-49
2021/07/16 08:48:58;;;;;;;19.53;9.40;;;;;;;;;;5030311;28;21094;-50
2021/07/16 08:51:24;;;;;;;26.83;10.70;;;;;;;;;;5029921;28;20840;-50
2021/07/16 08:53:54;;;;;;;11.93;8.83;;;;;;;;;;5030215;28;20446;-48
2021/07/16 08:56:20;;;;;;;21.00;11.00;;;;;;;;;;5030339;28;20411;-50
2021/07/16 08:58:46;;;;;;;17.70;10.20;;;;;;;;;;5030155;28;20434;-49
2021/07/16 09:01:13;;;;;;;15.83;9.90;;;;;;;;;;5029985;28;20402;-50
2021/07/16 09:04:02;;;;;;;19.77;10.00;;;;;;;;;;5030242;28;20885;-49
2021/07/16 09:06:43;;;;;;;15.57;9.97;;;;;;;;;;5029956;28;20429;-49
2021/07/16 09:09:09;;;;;;;15.67;8.93;;;;;;;;;;5029304;28;20832;-47
2021/07/16 09:11:39;;;;;;;13.03;9.77;;;;;;;;;;5029904;28;20388;-48
2021/07/16 09:14:05;;;;;;;15.17;9.73;;;;;;;;;;5033733;28;20410;-48
2021/07/16 09:16:31;;;;;;;12.20;8.77;;;;;;;;;;5032060;28;20402;-49
2021/07/16 09:18:58;;;;;;;12.60;8.73;;;;;;;;;;5031087;28;20470;-48
2021/07/16 09:21:24;;;;;;;12.10;8.97;;;;;;;;;;5033357;28;20398;-48
2021/07/16 09:23:49;;;;;;;16.37;8.97;;;;;;;;;;5033604;28;20520;-48
2021/07/16 09:26:27;;;;;;;12.73;8.93;;;;;;;;;;5033432;28;20454;-47
2021/07/16 09:28:53;;;;;;;14.90;8.40;;;;;;;;;;5033591;28;20428;-49
2021/07/16 09:31:23;;;;;;;15.33;9.83;;;;;;;;;;5033132;28;20389;-49
2021/07/16 09:33:53;;;;;;;13.03;9.20;;;;;;;;;;5033317;28;20899;-48
2021/07/16 09:36:41;;;;;;;15.97;8.80;;;;;;;;;;5033165;28;20407;-49
2021/07/16 09:39:11;;;;;;;14.73;9.40;;;;;;;;;;5032917;28;20604;-48
2021/07/16 09:41:51;;;;;;;10.87;8.70;;;;;;;;;;5033364;28;20409;-49
2021/07/16 09:44:28;;;;;;;14.50;8.87;;;;;;;;;;5033459;28;20436;-49
2021/07/16 09:47:13;;;;;;;11.90;8.87;;;;;;;;;;5032934;28;20923;-50
2021/07/16 09:49:39;;;;;;;14.70;8.67;;;;;;;;;;5033015;28;20444;-50
2021/07/16 09:52:07;;;;;;;13.50;9.73;;;;;;;;;;5032911;28;20399;-48
2021/07/16 09:54:33;;;;;;;14.37;10.20;;;;;;;;;;5032544;28;20409;-48
2021/07/16 09:56:59;;;;;;;14.70;9.77;;;;;;;;;;5032783;28;20409;-47
2021/07/16 09:59:29;;;;;;;16.03;9.27;;;;;;;;;;5032217;28;20461;-47
2021/07/16 10:01:55;;;;;;;19.57;10.30;;;;;;;;;;5030155;22;20435;-56
2021/07/16 10:04:23;;;;;;;17.10;8.10;;;;;;;;;;5029026;28;20425;-56
2021/07/16 10:06:51;;;;;;;19.97;9.90;;;;;;;;;;5032454;28;20402;-56
2021/07/16 10:09:18;;;;;;;22.63;8.77;;;;;;;;;;5032367;28;20394;-57
2021/07/16 10:11:51;;;;;;;16.83;9.73;;;;;;;;;;5032785;28;20759;-56
2021/07/16 10:14:17;;;;;;;12.47;8.57;;;;;;;;;;5032568;28;20459;-56
2021/07/16 10:16:44;;;;;;;13.37;9.33;;;;;;;;;;5032554;28;20401;-56
2021/07/16 10:19:12;;;;;;;16.30;8.50;;;;;;;;;;5032050;28;20464;-56
2021/07/16 10:21:38;;;;;;;10.30;9.17;;;;;;;;;;5032255;28;20906;-56
2021/07/16 10:24:04;;;;;;;21.33;9.50;;;;;;;;;;5031216;28;20854;-56
2021/07/16 10:26:31;;;;;;;10.30;8.97;;;;;;;;;;5032307;28;20488;-56
2021/07/16 10:28:57;;;;;;;11.00;8.47;;;;;;;;;;5032364;28;20510;-56
2021/07/16 10:31:29;;;;;;;10.70;8.87;;;;;;;;;;5032040;28;20537;-56
2021/07/16 10:33:56;;;;;;;15.10;8.13;;;;;;;;;;5032142;28;20773;-56
2021/07/16 10:36:41;;;;;;;12.00;7.87;;;;;;;;;;5032094;28;20405;-56
2021/07/16 10:39:12;;;;;;;17.03;8.60;;;;;;;;;;5031885;28;20942;-56
2021/07/16 10:41:40;;;;;;;15.00;9.23;;;;;;;;;;5031960;28;20464;-56
2021/07/16 10:44:06;;;;;;;11.33;8.80;;;;;;;;;;5031917;28;20906;-56
2021/07/16 10:46:36;;;;;;;19.73;9.50;;;;;;;;;;5031818;28;20402;-56
2021/07/16 10:49:04;;;;;;;9.43;8.53;;;;;;;;;;5031773;28;20538;-56
2021/07/16 10:51:31;;;;;;;11.30;8.87;;;;;;;;;;5031643;28;20773;-56
2021/07/16 10:53:58;;;;;;;14.83;9.33;;;;;;;;;;5031884;28;20406;-56
2021/07/16 10:56:37;;;;;;;14.50;11.30;;;;;;;;;;5031672;28;20413;-56
2021/07/16 10:59:03;;;;;;;19.10;11.10;;;;;;;;;;5031685;28;20499;-56
2021/07/16 11:01:37;;;;;;;14.93;10.80;;;;;;;;;;5031561;28;20406;-56
2021/07/16 11:04:05;;;;;;;20.60;11.10;;;;;;;;;;5031678;28;20486;-56
2021/07/16 11:06:49;;;;;;;17.03;11.57;;;;;;;;;;5031471;28;20402;-57
2021/07/16 11:09:31;;;;;;;17.60;13.20;;;;;;;;;;5031279;28;20402;-56
2021/07/16 11:12:17;;;;;;;13.07;10.33;;;;;;;;;;5031446;28;20422;-56
2021/07/16 11:14:44;;;;;;;15.20;10.70;;;;;;;;;;5031386;28;20411;-56
2021/07/16 11:17:10;;;;;;;19.23;10.90;;;;;;;;;;5031230;28;20789;-56
2021/07/16 11:19:36;;;;;;;20.20;11.70;;;;;;;;;;5031213;28;20449;-56
2021/07/16 11:22:03;;;;;;;17.60;12.43;;;;;;;;;;5031206;28;20457;-56
2021/07/16 11:24:32;;;;;;;16.20;12.27;;;;;;;;;;5030776;28;20404;-57
2021/07/16 11:27:09;;;;;;;15.53;10.80;;;;;;;;;;5011219;28;20953;-56
2021/07/16 11:29:35;;;;;;;22.13;12.50;;;;;;;;;;5011559;28;20402;-56
2021/07/16 11:32:05;;;;;;;18.87;12.87;;;;;;;;;;5011496;28;20449;-56
2021/07/16 11:34:31;;;;;;;17.47;12.57;;;;;;;;;;5011393;28;20422;-56
2021/07/16 11:36:57;;;;;;;25.33;14.10;;;;;;;;;;5011146;28;20457;-56
2021/07/16 11:39:26;;;;;;;15.83;12.60;;;;;;;;;;5010856;28;20461;-56
2021/07/16 11:41:52;;;;;;;26.40;14.57;;;;;;;;;;5011110;28;20485;-56
2021/07/16 11:44:27;;;;;;;15.10;11.97;;;;;;;;;;5011153;28;20410;-56
2021/07/16 11:46:55;;;;;;;14.30;12.30;;;;;;;;;;5010995;28;20477;-56
2021/07/16 11:49:28;;;;;;;16.50;12.50;;;;;;;;;;5010974;28;20477;-56
2021/07/16 11:52:01;;;;;;;15.33;10.87;;;;;;;;;;5010858;28;20430;-56
2021/07/16 11:54:28;;;;;;;16.33;11.13;;;;;;;;;;5010985;28;20404;-56
2021/07/16 11:56:58;;;;;;;16.43;9.63;;;;;;;;;;5011478;28;20873;-56
2021/07/16 11:59:24;;;;;;;17.43;10.10;;;;;;;;;;5010480;28;20466;-55
2021/07/16 12:02:08;;;;;;;17.83;9.77;;;;;;;;;;5011062;28;20482;-56
2021/07/16 12:04:35;;;;;;;16.97;9.87;;;;;;;;;;5010918;28;20470;-56
2021/07/16 12:07:02;;;;;;;17.40;9.50;;;;;;;;;;5010759;28;20801;-56
2021/07/16 12:09:29;;;;;;;16.10;10.00;;;;;;;;;;5010655;28;20410;-56
2021/07/16 12:12:06;;;;;;;23.33;11.77;;;;;;;;;;5010449;28;20433;-57
2021/07/16 12:14:52;;;;;;;14.87;11.30;;;;;;;;;;5010836;28;20439;-56
2021/07/16 12:17:20;;;;;;;13.47;12.17;;;;;;;;;;5003253;28;20908;-56
2021/07/16 12:19:46;;;;;;;19.90;14.30;;;;;;;;;;5010501;28;20458;-56
2021/07/16 12:22:13;;;;;;;29.03;15.40;;;;;;;;;;5010391;28;20423;-56
2021/07/16 12:24:40;;;;;;;25.40;19.03;;;;;;;;;;5010876;28;20398;-56
2021/07/16 12:27:07;;;;;;;28.17;19.17;;;;;;;;;;5010735;28;20969;-56
2021/07/16 12:29:33;;;;;;;25.43;20.10;;;;;;;;;;5010572;28;20418;-56
2021/07/16 12:31:59;;;;;;;27.43;18.93;;;;;;;;;;5010401;28;20478;-56
2021/07/16 12:34:26;;;;;;;31.63;20.73;;;;;;;;;;5010672;28;20414;-56
2021/07/16 12:37:12;;;;;;;26.07;18.23;;;;;;;;;;5010880;28;20505;-56
2021/07/16 12:39:39;;;;;;;24.53;17.37;;;;;;;;;;5010238;28;20450;-56
2021/07/16 12:42:12;;;;;;;15.90;14.30;;;;;;;;;;5010482;28;20437;-56
2021/07/16 12:44:38;;;;;;;24.17;14.83;;;;;;;;;;5010691;28;20410;-56
2021/07/16 12:47:05;;;;;;;20.90;16.23;;;;;;;;;;5010897;28;20462;-56
2021/07/16 12:49:31;;;;;;;25.90;18.60;;;;;;;;;;5014487;28;20407;-56
2021/07/16 12:52:10;;;;;;;27.47;20.17;;;;;;;;;;5014202;28;20874;-56
2021/07/16 12:54:36;;;;;;;25.97;20.63;;;;;;;;;;5014292;28;20410;-56
2021/07/16 12:57:15;;;;;;;32.17;21.47;;;;;;;;;;5014276;28;20707;-56
2021/07/16 12:59:49;;;;;;;32.00;20.07;;;;;;;;;;5014126;28;20503;-56
2021/07/16 13:02:21;;;;;;;29.23;17.10;;;;;;;;;;5014012;28;20531;-56
2021/07/16 13:04:49;;;;;;;31.47;16.77;;;;;;;;;;5014022;28;20437;-56
2021/07/16 13:07:25;;;;;;;24.80;16.97;;;;;;;;;;5014094;28;20407;-56
2021/07/16 13:09:51;;;;;;;21.07;12.23;;;;;;;;;;5013827;28;20413;-57
2021/07/16 13:12:20;;;;;;;18.10;11.10;;;;;;;;;;5013820;28;20430;-56
2021/07/16 13:14:58;;;;;;;32.23;13.83;;;;;;;;;;5013967;28;20501;-56
2021/07/16 13:17:23;;;;;;;15.97;11.30;;;;;;;;;;5014025;28;20417;-56
2021/07/16 13:20:00;;;;;;;24.83;12.13;;;;;;;;;;5013781;28;20454;-56
2021/07/16 13:22:27;;;;;;;17.83;10.97;;;;;;;;;;5013986;28;20441;-56
2021/07/16 13:24:53;;;;;;;15.07;11.00;;;;;;;;;;5014302;28;20410;-56
2021/07/16 13:27:20;;;;;;;28.10;11.60;;;;;;;;;;5013922;28;20405;-55
2021/07/16 13:29:46;;;;;;;15.03;10.87;;;;;;;;;;5013742;28;20469;-56
2021/07/16 13:32:13;;;;;;;23.47;9.50;;;;;;;;;;5014130;28;20926;-56
2021/07/16 13:34:39;;;;;;;17.13;9.00;;;;;;;;;;5013794;28;20449;-56
2021/07/16 13:37:05;;;;;;;15.47;10.03;;;;;;;;;;5013559;28;20438;-56
2021/07/16 13:39:31;;;;;;;16.40;8.83;;;;;;;;;;5013383;28;20516;-56
2021/07/16 13:41:57;;;;;;;16.10;8.60;;;;;;;;;;5013320;28;20423;-57
2021/07/16 13:44:23;;;;;;;10.57;9.10;;;;;;;;;;5013272;28;20752;-56
2021/07/16 13:46:49;;;;;;;18.40;9.90;;;;;;;;;;5013280;28;20413;-57
2021/07/16 13:49:15;;;;;;;23.00;12.07;;;;;;;;;;5013258;28;20399;-56
2021/07/16 13:51:41;;;;;;;22.47;11.13;;;;;;;;;;5013019;28;20429;-56
2021/07/16 13:54:08;;;;;;;17.47;10.47;;;;;;;;;;5013029;28;20421;-56
2021/07/16 13:56:36;;;;;;;24.83;10.67;;;;;;;;;;5013055;28;20414;-56
2021/07/16 13:59:02;;;;;;;16.90;9.07;;;;;;;;;;5012957;28;20540;-56
2021/07/16 14:01:28;;;;;;;16.60;8.40;;;;;;;;;;5012963;28;20431;-56
2021/07/16 14:03:54;;;;;;;14.67;8.70;;;;;;;;;;5013197;28;20435;-56
2021/07/16 14:06:20;;;;;;;18.70;8.60;;;;;;;;;;5012855;28;20406;-56
2021/07/16 14:08:46;;;;;;;18.43;8.00;;;;;;;;;;5012973;28;20495;-56
2021/07/16 14:11:12;;;;;;;18.27;8.83;;;;;;;;;;5012875;28;20411;-56
2021/07/16 14:13:38;;;;;;;18.50;8.03;;;;;;;;;;5012896;28;20433;-56
2021/07/16 14:16:04;;;;;;;19.70;9.23;;;;;;;;;;5012672;28;20403;-56
2021/07/16 14:18:30;;;;;;;13.43;8.30;;;;;;;;;;5012691;28;20458;-56
2021/07/16 14:20:56;;;;;;;17.63;8.63;;;;;;;;;;5012387;28;20468;-57
2021/07/16 14:23:22;;;;;;;14.73;7.97;;;;;;;;;;5012659;28;20427;-56